createdAt,value
2022-12-23T00:00:44.204Z,97149.66
2022-12-23T00:03:10.625Z,97141.25
2022-12-23T00:05:38.126Z,97137.00
2022-12-23T00:08:04.769Z,97135.97
2022-12-23T00:10:31.073Z,97137.59
2022-12-23T00:12:57.414Z,97148.34
2022-12-23T00:15:23.826Z,97136.22
2022-12-23T00:17:50.128Z,97134.81
2022-12-23T00:20:16.490Z,97128.41
2022-12-23T00:22:42.842Z,97130.75
2022-12-23T00:25:09.168Z,97131.31
2022-12-23T00:27:37.632Z,97133.09
2022-12-23T00:30:04.268Z,97135.19
2022-12-23T00:32:30.607Z,97137.00
2022-12-23T00:34:56.922Z,97114.63
2022-12-23T00:37:23.327Z,97127.81
2022-12-23T00:39:54.789Z,97115.09
2022-12-23T00:42:21.511Z,97114.88
2022-12-23T00:44:47.889Z,97123.88
2022-12-23T00:47:14.239Z,97130.41
2022-12-23T00:49:40.529Z,97109.97
2022-12-23T00:52:06.887Z,97094.94
2022-12-23T00:54:33.242Z,97118.84
2022-12-23T00:56:59.565Z,97090.63
2022-12-23T00:59:26.357Z,97120.41
2022-12-23T01:01:52.883Z,97105.66
2022-12-23T01:04:19.286Z,97081.03
2022-12-23T01:06:45.649Z,97098.19
2022-12-23T01:09:12.010Z,97108.59
2022-12-23T01:11:38.316Z,97083.25
2022-12-23T01:14:04.687Z,97110.66
2022-12-23T01:16:31.055Z,97109.75
2022-12-23T01:18:57.557Z,97111.94
2022-12-23T01:21:23.959Z,97119.22
2022-12-23T01:23:50.250Z,97117.56
2022-12-23T01:26:16.717Z,97122.59
2022-12-23T01:28:43.183Z,97125.84
2022-12-23T01:31:09.584Z,97118.03
2022-12-23T01:33:35.878Z,97124.56
2022-12-23T01:36:02.250Z,97130.19
2022-12-23T01:38:28.597Z,97130.78
2022-12-23T01:40:54.926Z,97138.13
2022-12-23T01:43:21.309Z,97149.34
2022-12-23T01:45:47.687Z,97139.97
2022-12-23T01:48:14.056Z,97154.22
2022-12-23T01:50:40.466Z,97143.72
2022-12-23T01:53:08.384Z,97138.84
2022-12-23T01:55:35.025Z,97144.78
2022-12-23T01:58:01.436Z,97135.66
2022-12-23T02:00:27.763Z,97143.13
2022-12-23T02:02:54.190Z,97133.94
2022-12-23T02:05:20.643Z,97136.16
2022-12-23T02:07:46.971Z,97138.34
2022-12-23T02:10:13.318Z,97133.22
2022-12-23T02:12:39.838Z,97134.38
2022-12-23T02:15:06.177Z,97141.88
2022-12-23T02:17:32.505Z,97142.66
2022-12-23T02:19:58.947Z,97107.28
2022-12-23T02:22:25.307Z,97120.16
2022-12-23T02:24:51.732Z,97120.63
2022-12-23T02:27:18.130Z,97100.66
2022-12-23T02:29:44.491Z,97122.38
2022-12-23T02:32:10.899Z,97130.66
2022-12-23T02:34:37.348Z,97130.91
2022-12-23T02:37:03.760Z,97114.25
2022-12-23T02:39:30.079Z,97103.81
2022-12-23T02:41:56.437Z,97107.91
2022-12-23T02:44:22.877Z,97107.22
2022-12-23T02:46:49.315Z,97081.88
2022-12-23T02:49:15.743Z,97082.94
2022-12-23T02:51:42.097Z,97094.63
2022-12-23T02:54:08.514Z,97105.13
2022-12-23T02:56:34.827Z,97098.94
2022-12-23T02:59:01.293Z,97103.81
2022-12-23T03:01:27.707Z,97117.72
2022-12-23T03:03:54.449Z,97119.59
2022-12-23T03:06:20.883Z,97089.59
2022-12-23T03:08:47.211Z,97087.03
2022-12-23T03:11:13.626Z,97093.47
2022-12-23T03:13:39.982Z,97107.81
2022-12-23T03:16:06.314Z,97098.13
2022-12-23T03:18:32.710Z,97109.19
2022-12-23T03:20:59.029Z,97104.41
2022-12-23T03:23:25.352Z,97111.63
2022-12-23T03:25:51.685Z,97120.91
2022-12-23T03:28:18.052Z,97119.84
2022-12-23T03:30:44.359Z,97116.09
2022-12-23T03:33:10.754Z,97127.06
2022-12-23T03:35:37.100Z,97115.03
2022-12-23T03:38:03.441Z,97122.06
2022-12-23T03:40:29.806Z,97115.53
2022-12-23T03:42:56.212Z,97110.72
2022-12-23T03:45:39.740Z,97101.13
2022-12-23T03:48:07.400Z,97107.09
2022-12-23T03:50:33.749Z,97085.38
2022-12-23T03:53:00.216Z,97089.22
2022-12-23T03:55:26.591Z,97086.53
2022-12-23T03:57:52.919Z,97087.59
2022-12-23T04:00:19.363Z,97086.69
2022-12-23T04:02:45.838Z,97072.91
2022-12-23T04:05:12.294Z,97076.31
2022-12-23T04:07:38.668Z,97080.88
2022-12-23T04:10:05.123Z,97072.00
2022-12-23T04:12:51.455Z,97066.53
2022-12-23T04:15:28.790Z,97073.53
2022-12-23T04:18:07.617Z,97074.03
2022-12-23T04:20:46.491Z,97082.63
2022-12-23T04:23:12.883Z,97073.78
2022-12-23T04:25:39.298Z,97073.78
2022-12-23T04:28:05.621Z,97069.22
2022-12-23T04:30:34.702Z,97082.88
2022-12-23T04:33:01.385Z,97083.09
2022-12-23T04:35:27.737Z,97079.47
2022-12-23T04:37:54.041Z,97080.78
2022-12-23T04:40:20.370Z,97071.41
2022-12-23T04:42:46.706Z,97075.50
2022-12-23T04:45:13.009Z,97078.53
2022-12-23T04:47:39.449Z,97069.66
2022-12-23T04:50:05.859Z,97075.75
2022-12-23T04:52:32.204Z,97082.16
2022-12-23T04:54:58.723Z,97075.13
2022-12-23T04:57:25.071Z,97084.28
2022-12-23T04:59:51.392Z,97081.69
2022-12-23T05:02:18.040Z,97095.09
2022-12-23T05:04:44.485Z,97088.34
2022-12-23T05:07:10.880Z,97092.88
2022-12-23T05:09:37.256Z,97096.16
2022-12-23T05:12:03.592Z,97108.50
2022-12-23T05:14:29.888Z,97120.06
2022-12-23T05:16:59.532Z,97124.06
2022-12-23T05:19:28.534Z,97121.63
2022-12-23T05:21:54.851Z,97122.66
2022-12-23T05:24:21.258Z,97107.38
2022-12-23T05:26:48.086Z,97108.31
2022-12-23T05:29:15.056Z,97110.28
2022-12-23T05:31:41.481Z,97116.00
2022-12-23T05:34:07.907Z,97116.09
2022-12-23T05:36:34.269Z,97116.69
2022-12-23T05:39:00.728Z,97117.41
2022-12-23T05:41:27.109Z,97100.59
2022-12-23T05:43:53.442Z,97096.59
2022-12-23T05:46:25.984Z,97108.03
2022-12-23T05:48:53.054Z,97108.63
2022-12-23T05:51:19.448Z,97112.47
2022-12-23T05:53:45.753Z,97109.19
2022-12-23T05:56:12.083Z,97120.31
2022-12-23T05:58:38.499Z,97113.88
2022-12-23T06:01:04.824Z,97114.94
2022-12-23T06:03:31.385Z,97117.25
2022-12-23T06:05:57.938Z,97114.25
2022-12-23T06:08:24.260Z,97113.16
2022-12-23T06:10:50.611Z,97114.47
2022-12-23T06:13:16.957Z,97118.78
2022-12-23T06:15:43.251Z,97113.41
2022-12-23T06:18:09.556Z,97122.28
2022-12-23T06:20:35.975Z,97116.09
2022-12-23T06:23:02.322Z,97121.22
2022-12-23T06:25:28.631Z,97122.06
2022-12-23T06:27:55.050Z,97116.22
2022-12-23T06:30:21.381Z,97102.91
2022-12-23T06:32:47.692Z,97108.41
2022-12-23T06:35:14.056Z,97099.78
2022-12-23T06:37:40.400Z,97093.56
2022-12-23T06:40:06.730Z,97098.84
2022-12-23T06:42:33.074Z,97099.44
2022-12-23T06:44:59.445Z,97069.75
2022-12-23T06:47:25.775Z,97071.06
2022-12-23T06:49:52.187Z,97082.03
2022-12-23T06:52:18.527Z,97078.63
2022-12-23T06:54:44.848Z,97071.13
2022-12-23T06:57:11.218Z,97089.94
2022-12-23T06:59:37.573Z,97104.66
2022-12-23T07:02:04.122Z,97095.22
2022-12-23T07:04:30.638Z,97107.81
2022-12-23T07:06:56.963Z,97119.13
2022-12-23T07:09:23.513Z,97121.47
2022-12-23T07:11:49.832Z,97130.91
2022-12-23T07:14:16.189Z,97118.91
2022-12-23T07:16:42.633Z,97122.72
2022-12-23T07:19:09.486Z,97124.69
2022-12-23T07:21:37.074Z,97120.16
2022-12-23T07:24:03.519Z,97129.34
2022-12-23T07:26:30.034Z,97129.84
2022-12-23T07:28:56.476Z,97120.81
2022-12-23T07:31:23.090Z,97122.38
2022-12-23T07:33:49.552Z,97127.25
2022-12-23T07:36:15.994Z,97127.16
2022-12-23T07:38:42.401Z,97127.50
2022-12-23T07:41:08.803Z,97134.72
2022-12-23T07:43:35.186Z,97123.63
2022-12-23T07:46:01.846Z,97170.56
2022-12-23T07:48:28.287Z,97157.38
2022-12-23T07:50:54.670Z,97112.19
2022-12-23T07:53:21.205Z,97144.06
2022-12-23T07:55:52.986Z,97156.09
2022-12-23T07:58:23.733Z,97169.88
2022-12-23T08:00:50.407Z,97130.19
2022-12-23T08:03:16.897Z,97141.94
2022-12-23T08:05:44.705Z,97154.69
2022-12-23T08:08:11.089Z,97147.00
2022-12-23T08:10:40.307Z,97138.72
2022-12-23T08:13:11.250Z,97146.41
2022-12-23T08:15:37.631Z,97136.84
2022-12-23T08:18:04.103Z,97125.19
2022-12-23T08:20:31.547Z,97134.84
2022-12-23T08:22:57.897Z,97128.44
2022-12-23T08:25:24.534Z,97129.78
2022-12-23T08:27:50.981Z,97127.00
2022-12-23T08:30:17.517Z,97134.34
2022-12-23T08:32:46.579Z,97150.78
2022-12-23T08:35:13.041Z,97142.16
2022-12-23T08:37:39.532Z,97145.41
2022-12-23T08:40:05.932Z,97147.53
2022-12-23T08:42:32.350Z,97164.56
2022-12-23T08:44:58.883Z,97172.94
2022-12-23T08:47:25.274Z,97187.34
2022-12-23T08:49:51.804Z,97161.63
2022-12-23T08:52:19.450Z,97178.22
2022-12-23T08:54:45.878Z,97170.53
2022-12-23T08:57:12.798Z,97153.94
2022-12-23T08:59:39.190Z,97147.25
2022-12-23T09:02:05.654Z,97180.88
2022-12-23T09:04:32.284Z,97178.13
2022-12-23T09:06:58.696Z,97166.06
2022-12-23T09:09:25.177Z,97193.09
2022-12-23T09:11:52.082Z,97186.47
2022-12-23T09:14:18.459Z,97188.31
2022-12-23T09:16:44.874Z,97190.19
2022-12-23T09:19:11.317Z,97181.41
2022-12-23T09:21:37.810Z,97193.41
2022-12-23T09:24:04.206Z,97206.38
2022-12-23T09:26:30.615Z,97209.19
2022-12-23T09:28:57.204Z,97224.34
2022-12-23T09:31:23.984Z,97211.31
2022-12-23T09:33:50.791Z,97208.69
2022-12-23T09:36:17.262Z,97223.41
2022-12-23T09:38:43.660Z,97222.44
2022-12-23T09:41:10.183Z,97213.88
2022-12-23T09:43:36.515Z,97216.72
2022-12-23T09:46:02.944Z,97228.63
2022-12-23T09:48:29.802Z,97233.00
2022-12-23T09:50:56.337Z,97223.19
2022-12-23T09:53:22.684Z,97234.44
2022-12-23T09:55:49.206Z,97234.88
2022-12-23T09:58:18.806Z,97231.78
2022-12-23T10:00:46.353Z,97238.47
2022-12-23T10:03:16.081Z,97243.00
2022-12-23T10:05:42.795Z,97213.47
2022-12-23T10:08:09.177Z,97238.38
2022-12-23T10:10:35.717Z,97246.53
2022-12-23T10:13:02.091Z,97212.06
2022-12-23T10:15:28.651Z,97212.75
